Oakley, Idaho
Current Conditions -  °F | °C
As of 8:53 AM on Thursday 29 Jan 2015 (Local Time) from KBYI Reporting Station
Overcast Overcast  
Wind Chill: 28°   Ceiling: 1600
Heat Index: 36°   Visibility: 8mi
Dew Point: 32°   Wind: 10mph
Humidity: 86%   Direction: 80°E
Pressure: 30.4"   Gusts: NA
Location:  42.24°N, 113.88°W
Report Text: KBYI 291553Z AUTO 08009KT 8SM OVC016 02/00 A3040 RMK AO2 SLP307 T00220000
Loading
Personal Weather Stations






























Interactive Weather Map New forecast layout! Learn more

10-Day Weather Forecast

Advertisements
Track Severe Weather on mobile